Time;durP1;ratioP1;P1;durP2;ratioP2;P2;SDS_P1;SDS_P2;PMS_P1;PMS_P2;Temp;Humidity;BMP_temperature;BMP_pressure;BME280_temperature;BME280_humidity;BME280_pressure;Samples;Min_cycle;Max_cycle;Signal;HPM_P1;HPM_P2
2023/03/29 00:00:40;;;;;;;5.07;3.30;;;5.90;99.90;;;;;;5088661;28;20302;-71
2023/03/29 00:03:06;;;;;;;6.22;3.78;;;7.30;99.90;;;;;;5097788;28;20036;-72
2023/03/29 00:05:56;;;;;;;5.03;3.47;;;7.20;99.90;;;;;;5065229;28;20024;-72
2023/03/29 00:08:25;;;;;;;4.90;3.50;;;7.20;99.90;;;;;;5067856;28;20024;-76
2023/03/29 00:11:22;;;;;;;4.57;3.28;;;6.90;99.90;;;;;;5065804;28;20039;-73
2023/03/29 00:14:44;;;;;;;4.82;3.13;;;6.80;99.90;;;;;;5061635;28;20151;-73
2023/03/29 00:17:10;;;;;;;6.75;3.85;;;7.10;99.90;;;;;;5068743;28;20522;-74
2023/03/29 00:20:09;;;;;;;5.13;3.38;;;7.10;99.90;;;;;;5071452;28;20031;-73
2023/03/29 00:22:36;;;;;;;5.20;3.17;;;7.20;99.90;;;;;;5080734;28;20111;-70
2023/03/29 00:25:58;;;;;;;4.22;3.20;;;6.80;99.90;;;;;;5094736;28;20099;-74
2023/03/29 00:28:55;;;;;;;;;;;;;;;;;;;;;
2023/03/29 00:32:00;;;;;;;;;;;;;;;;;;;;;
2023/03/29 00:35:13;;;;;;;6.28;3.33;;;7.10;99.90;;;;;;5068833;28;20100;-74
2023/03/29 00:37:51;;;;;;;4.95;3.08;;;7.40;99.90;;;;;;5027680;28;20280;-72
2023/03/29 00:40:46;;;;;;;5.57;3.15;;;7.20;99.90;;;;;;5021158;28;20080;-72
2023/03/29 00:43:56;;;;;;;4.28;2.92;;;7.10;99.90;;;;;;5062248;28;20044;-72
2023/03/29 00:46:23;;;;;;;6.03;3.00;;;7.00;99.90;;;;;;5015055;28;20036;-74
2023/03/29 00:48:55;;;;;;;4.50;3.10;;;7.10;99.90;;;;;;5059552;28;20159;-75
2023/03/29 00:51:45;;;;;;;4.38;2.85;;;7.10;99.90;;;;;;5063126;28;20059;-74
2023/03/29 00:54:57;;;;;;;4.68;2.90;;;6.80;99.90;;;;;;5059482;28;20199;-71
2023/03/29 00:57:24;;;;;;;7.40;2.80;;;7.30;99.90;;;;;;5046440;28;20103;-71
2023/03/29 01:04:05;;;;;;;5.78;3.20;;;6.00;99.90;;;;;;5060578;28;20067;-72
2023/03/29 01:07:18;;;;;;;5.60;3.03;;;7.20;99.90;;;;;;5093438;28;20067;-74
2023/03/29 01:10:42;;;;;;;4.63;3.15;;;7.10;99.90;;;;;;5095297;28;20061;-72
2023/03/29 01:13:33;;;;;;;4.55;3.25;;;8.00;99.90;;;;;;5014475;28;20072;-74
2023/03/29 01:16:02;;;;;;;3.53;2.53;;;7.20;99.90;;;;;;5086883;28;20036;-73
2023/03/29 01:18:30;;;;;;;5.97;3.35;;;7.20;99.90;;;;;;5090431;28;20027;-71
2023/03/29 01:21:23;;;;;;;5.25;3.13;;;6.80;99.90;;;;;;5104196;28;20028;-74
2023/03/29 01:27:52;;;;;;;5.00;3.80;;;6.90;99.90;;;;;;5080363;28;20032;-73
2023/03/29 01:30:37;;;;;;;3.70;3.00;;;6.70;99.90;;;;;;5106301;27;20359;-70
2023/03/29 01:37:59;;;;;;;5.43;3.13;;;6.00;99.90;;;;;;4972536;28;20568;-73
2023/03/29 01:40:39;;;;;;;4.47;3.45;;;6.90;99.90;;;;;;5014735;28;20052;-72
2023/03/29 01:46:42;;;;;;;4.40;3.47;;;6.70;99.90;;;;;;5025815;28;20032;-70
2023/03/29 01:50:17;;;;;;;7.15;3.67;;;5.80;99.90;;;;;;5006355;28;20037;-76
2023/03/29 01:53:26;;;;;;;6.43;3.65;;;6.70;99.90;;;;;;5021065;28;20052;-73
2023/03/29 01:56:15;;;;;;;4.70;3.28;;;7.00;99.90;;;;;;5014929;28;20064;-72
2023/03/29 01:59:04;;;;;;;6.10;3.50;;;7.20;99.90;;;;;;5079236;28;20262;-74
2023/03/29 02:02:18;;;;;;;5.68;3.90;;;6.80;99.90;;;;;;5079751;28;20051;-72
2023/03/29 02:05:25;;;;;;;5.95;3.42;;;7.30;99.90;;;;;;5084454;28;20051;-74
2023/03/29 02:07:59;;;;;;;4.93;4.00;;;6.90;99.90;;;;;;5045862;28;20040;-72
2023/03/29 02:10:32;;;;;;;7.40;4.47;;;7.20;99.90;;;;;;5090694;28;20037;-75
2023/03/29 02:13:11;;;;;;;6.97;4.13;;;7.10;99.90;;;;;;5079566;28;20312;-73
2023/03/29 02:16:24;;;;;;;6.95;4.13;;;7.90;99.90;;;;;;5091306;28;20036;-75
2023/03/29 02:19:59;;;;;;;8.20;3.58;;;6.30;99.90;;;;;;5081860;28;20032;-73
2023/03/29 02:26:29;;;;;;;7.35;4.85;;;6.50;99.90;;;;;;5016047;28;20044;-76
2023/03/29 02:29:16;;;;;;;8.65;5.30;;;6.90;99.90;;;;;;5081058;28;20111;-71
2023/03/29 02:32:03;;;;;;;6.88;4.00;;;6.90;99.90;;;;;;5066300;28;20032;-75
2023/03/29 02:34:38;;;;;;;5.43;4.20;;;7.20;99.90;;;;;;5097595;28;20039;-76
2023/03/29 02:37:24;;;;;;;7.28;5.15;;;7.00;99.90;;;;;;5073097;28;20071;-76
2023/03/29 02:40:00;;;;;;;7.40;5.20;;;6.90;99.90;;;;;;5066963;28;20326;-76
2023/03/29 02:42:29;;;;;;;7.95;4.53;;;6.60;99.90;;;;;;5083423;28;20210;-74
2023/03/29 02:45:00;;;;;;;6.07;4.45;;;7.00;99.90;;;;;;5084616;28;20263;-74
2023/03/29 02:48:00;;;;;;;9.20;4.30;;;7.30;99.90;;;;;;5090529;28;20504;-73
2023/03/29 02:57:40;;;;;;;6.00;4.60;;;7.10;99.90;;;;;;5069994;28;21265;-74
2023/03/29 03:00:10;;;;;;;5.55;4.45;;;7.30;99.90;;;;;;5076170;28;20094;-73
2023/03/29 03:02:49;;;;;;;6.25;4.60;;;7.20;99.90;;;;;;5080544;28;20036;-72
2023/03/29 03:05:16;;;;;;;7.18;4.80;;;7.10;99.90;;;;;;5084436;28;20036;-75
2023/03/29 03:08:37;;;;;;;6.90;4.43;;;7.20;99.90;;;;;;5081021;28;20058;-76
2023/03/29 03:11:35;;;;;;;10.13;5.38;;;7.10;99.90;;;;;;5058829;28;20223;-72
2023/03/29 03:14:05;;;;;;;8.15;4.70;;;6.80;99.90;;;;;;5105251;27;20024;-73
2023/03/29 03:28:55;;;;;;;7.00;4.93;;;6.90;99.90;;;;;;4971110;28;20409;-74
2023/03/29 03:31:37;;;;;;;11.30;5.13;;;7.20;99.90;;;;;;4940574;29;20035;-74
2023/03/29 03:34:33;;;;;;;7.15;4.15;;;7.00;99.90;;;;;;5004100;28;20080;-72
2023/03/29 03:37:02;;;;;;;10.23;5.68;;;7.10;99.90;;;;;;5020412;28;20094;-72
2023/03/29 03:39:28;;;;;;;8.20;4.45;;;7.00;99.90;;;;;;5059807;28;20040;-70
2023/03/29 03:41:53;;;;;;;6.15;4.30;;;6.90;99.90;;;;;;5063755;28;20039;-73
2023/03/29 03:44:19;;;;;;;9.00;5.13;;;7.20;99.90;;;;;;5087576;28;20055;-74
2023/03/29 03:47:46;;;;;;;6.82;5.32;;;7.00;99.90;;;;;;5057635;28;20047;-74
2023/03/29 03:50:12;;;;;;;7.43;5.38;;;7.10;99.90;;;;;;5040143;28;20314;-72
2023/03/29 03:52:38;;;;;;;7.65;5.28;;;7.00;99.90;;;;;;5088069;28;20061;-72
2023/03/29 03:55:04;;;;;;;9.75;5.35;;;7.00;99.90;;;;;;5073910;28;20032;-72
2023/03/29 03:57:31;;;;;;;8.13;5.55;;;7.20;99.90;;;;;;5069432;28;20365;-72
2023/03/29 03:59:57;;;;;;;7.15;5.32;;;6.90;99.90;;;;;;5093709;28;20048;-73
2023/03/29 04:03:30;;;;;;;7.53;5.47;;;7.10;99.90;;;;;;5081971;28;20226;-76
2023/03/29 04:08:00;;;;;;;8.80;5.57;;;7.30;99.90;;;;;;5108738;28;20040;-74
2023/03/29 04:09:56;;;;;;;9.85;6.47;;;6.70;99.90;;;;;;5070388;28;20046;-76
2023/03/29 04:13:19;;;;;;;9.73;6.28;;;7.00;99.90;;;;;;5122315;27;20055;-76
2023/03/29 04:15:48;;;;;;;9.88;5.60;;;7.20;99.90;;;;;;5026671;28;20040;-73
2023/03/29 04:18:49;;;;;;;9.10;5.82;;;7.00;99.90;;;;;;5067711;28;20043;-72
2023/03/29 04:21:34;;;;;;;10.15;5.75;;;7.00;99.90;;;;;;5095907;28;20040;-73
2023/03/29 04:24:11;;;;;;;8.60;6.00;;;7.40;99.90;;;;;;5086496;28;20025;-71
2023/03/29 04:26:47;;;;;;;9.85;6.30;;;7.40;99.90;;;;;;5095342;28;20032;-73
2023/03/29 04:29:45;;;;;;;8.45;5.40;;;7.20;99.90;;;;;;5097705;28;20031;-74
2023/03/29 04:32:13;;;;;;;9.60;6.18;;;7.50;99.90;;;;;;5079269;28;20041;-74
2023/03/29 04:34:48;;;;;;;11.13;6.72;;;7.30;99.90;;;;;;5066144;28;20036;-72
2023/03/29 04:37:20;;;;;;;11.73;7.97;;;7.40;99.90;;;;;;5088321;28;20040;-74
2023/03/29 04:40:09;;;;;;;10.75;6.38;;;7.30;99.90;;;;;;5105351;28;20051;-70
2023/03/29 04:46:44;;;;;;;10.80;6.55;;;6.20;99.90;;;;;;5014603;28;20042;-72
2023/03/29 04:49:49;;;;;;;14.07;7.35;;;7.30;99.90;;;;;;5060833;28;20068;-75
2023/03/29 04:55:24;;;;;;;10.65;6.90;;;7.40;99.90;;;;;;5071777;28;20052;-74
2023/03/29 04:57:54;;;;;;;11.20;7.50;;;7.60;99.90;;;;;;5058997;28;20040;-73
2023/03/29 05:00:48;;;;;;;10.38;7.63;;;7.40;99.90;;;;;;5060973;28;20044;-73
2023/03/29 05:03:45;;;;;;;11.98;7.30;;;7.30;99.90;;;;;;5045309;28;20032;-75
2023/03/29 05:06:14;;;;;;;11.18;6.60;;;7.60;99.90;;;;;;5047329;28;20178;-74
2023/03/29 05:09:12;;;;;;;13.02;8.13;;;8.30;99.90;;;;;;5091621;28;20036;-73
2023/03/29 05:15:39;;;;;;;11.10;8.20;;;6.70;99.90;;;;;;4966423;28;20030;-73
2023/03/29 05:23:06;;;;;;;9.48;6.43;;;7.30;99.90;;;;;;5041623;28;20104;-72
2023/03/29 05:25:56;;;;;;;11.25;7.75;;;7.60;99.90;;;;;;4991179;28;20044;-73
2023/03/29 05:33:19;;;;;;;;;;;;;;;;;;;;;
2023/03/29 05:36:20;;;;;;;9.63;6.68;;;6.60;99.90;;;;;;5022377;28;20271;-74
2023/03/29 05:38:49;;;;;;;10.48;7.40;;;7.50;99.90;;;;;;5074885;28;20372;-71
2023/03/29 05:41:18;;;;;;;10.05;8.00;;;8.90;99.90;;;;;;5083941;28;20086;-74
2023/03/29 05:43:59;;;;;;;13.05;7.68;;;7.30;99.90;;;;;;5053854;28;20061;-71
2023/03/29 05:46:46;;;;;;;13.32;7.55;;;7.50;99.90;;;;;;5085172;28;20032;-74
2023/03/29 05:49:38;;;;;;;10.18;7.45;;;6.80;99.90;;;;;;5076445;28;20096;-72
2023/03/29 05:52:49;;;;;;;12.38;7.70;;;7.80;99.90;;;;;;5050955;28;20298;-71
2023/03/29 05:58:27;;;;;;;11.27;7.57;;;7.70;99.90;;;;;;5086089;27;20311;-73
2023/03/29 06:00:56;;;;;;;10.48;7.50;;;7.80;99.90;;;;;;5070926;28;20044;-74
2023/03/29 06:03:26;;;;;;;11.38;7.68;;;7.90;99.90;;;;;;5070231;28;20024;-71
2023/03/29 06:06:01;;;;;;;12.20;8.45;;;7.80;99.90;;;;;;5106986;28;20032;-73
2023/03/29 06:08:27;;;;;;;14.93;8.48;;;7.70;99.90;;;;;;5093590;28;20042;-73
2023/03/29 06:11:16;;;;;;;14.27;7.88;;;7.50;99.90;;;;;;5112450;28;20027;-72
2023/03/29 06:13:45;;;;;;;13.80;7.78;;;7.50;99.90;;;;;;5096027;28;20376;-72
2023/03/29 06:16:13;;;;;;;11.35;7.72;;;7.90;99.90;;;;;;5061016;28;20048;-72
2023/03/29 06:18:40;;;;;;;9.88;7.07;;;7.60;99.90;;;;;;5083207;28;20242;-76
2023/03/29 06:21:08;;;;;;;13.07;8.13;;;8.00;99.90;;;;;;5078638;28;20085;-75
2023/03/29 06:23:35;;;;;;;12.07;7.63;;;7.50;99.90;;;;;;5099756;28;20363;-74
2023/03/29 06:26:01;;;;;;;11.60;8.00;;;7.90;99.90;;;;;;5063330;28;20020;-74
2023/03/29 06:28:27;;;;;;;11.48;8.07;;;7.70;99.90;;;;;;5093592;28;20219;-75
2023/03/29 06:31:08;;;;;;;19.23;8.18;;;8.10;99.90;;;;;;5072684;28;20058;-73
2023/03/29 06:33:50;;;;;;;11.18;8.07;;;8.10;99.90;;;;;;5058744;28;20036;-74
2023/03/29 06:36:28;;;;;;;11.65;8.05;;;8.10;99.90;;;;;;5065537;28;20038;-70
2023/03/29 06:39:03;;;;;;;11.35;6.38;;;8.00;99.90;;;;;;5084887;28;20223;-74
2023/03/29 06:41:29;;;;;;;13.90;8.07;;;8.10;99.90;;;;;;5095737;28;20054;-72
2023/03/29 06:47:33;;;;;;;11.45;7.88;;;7.70;99.90;;;;;;4911956;28;20094;-74
2023/03/29 06:50:28;;;;;;;15.27;9.10;;;7.70;99.90;;;;;;4966012;28;20268;-74
2023/03/29 06:52:54;;;;;;;15.45;8.00;;;7.70;99.90;;;;;;4933329;29;20107;-74
2023/03/29 06:55:26;;;;;;;10.23;7.95;;;7.70;99.90;;;;;;4963802;28;20081;-73
2023/03/29 06:57:54;;;;;;;12.63;8.60;;;8.00;99.90;;;;;;5051761;28;20242;-73
2023/03/29 07:03:34;;;;;;;10.73;7.53;;;8.30;99.90;;;;;;5066549;28;20040;-72
2023/03/29 07:10:08;;;;;;;8.82;6.30;;;8.80;99.90;;;;;;4975219;28;20030;-75
2023/03/29 07:12:50;;;;;;;15.63;9.27;;;8.30;99.90;;;;;;5009604;28;20323;-72
2023/03/29 07:15:22;;;;;;;12.07;8.60;;;8.10;99.90;;;;;;5104668;28;20327;-73
2023/03/29 07:17:57;;;;;;;13.30;8.95;;;9.40;99.90;;;;;;5097883;28;20502;-75
2023/03/29 07:20:27;;;;;;;12.32;9.02;;;10.00;99.90;;;;;;5095685;28;20040;-73
2023/03/29 07:22:58;;;;;;;14.18;9.10;;;8.40;99.90;;;;;;5086410;28;20196;-73
